createdAt,value
2018-09-20T00:00:52.597Z,11.00
2018-09-20T00:03:20.676Z,12.17
2018-09-20T00:05:48.888Z,10.77
2018-09-20T00:08:17.015Z,11.40
2018-09-20T00:10:45.081Z,10.50
2018-09-20T00:13:13.161Z,10.90
2018-09-20T00:15:41.230Z,11.33
2018-09-20T00:18:09.332Z,11.57
2018-09-20T00:20:37.444Z,10.80
2018-09-20T00:23:05.666Z,10.90
2018-09-20T00:25:33.840Z,11.03
2018-09-20T00:28:01.917Z,11.13
2018-09-20T00:30:30.097Z,10.83
2018-09-20T00:32:58.217Z,11.27
2018-09-20T00:35:26.321Z,12.23
2018-09-20T00:37:54.497Z,11.70
2018-09-20T00:40:22.636Z,11.90
2018-09-20T00:42:50.717Z,11.50
2018-09-20T00:45:18.793Z,10.40
2018-09-20T00:47:46.873Z,11.00
2018-09-20T00:50:14.924Z,10.63
2018-09-20T00:52:43.017Z,10.63
2018-09-20T00:55:11.185Z,11.53
2018-09-20T00:57:39.257Z,12.47
2018-09-20T01:00:07.373Z,10.10
2018-09-20T01:02:35.545Z,12.90
2018-09-20T01:05:03.993Z,11.13
2018-09-20T01:07:32.089Z,11.40
2018-09-20T01:10:00.328Z,11.20
2018-09-20T01:12:28.393Z,12.10
2018-09-20T01:14:56.486Z,12.67
2018-09-20T01:17:24.579Z,11.83
2018-09-20T01:19:52.652Z,12.40
2018-09-20T01:22:20.829Z,13.37
2018-09-20T01:24:48.912Z,12.10
2018-09-20T01:27:17.108Z,11.30
2018-09-20T01:29:45.169Z,11.50
2018-09-20T01:32:13.350Z,12.30
2018-09-20T01:34:41.477Z,11.83
2018-09-20T01:37:09.554Z,12.90
2018-09-20T01:39:37.690Z,12.80
2018-09-20T01:42:05.749Z,12.40
2018-09-20T01:44:34.018Z,12.63
2018-09-20T01:47:02.184Z,12.30
2018-09-20T01:49:30.249Z,12.10
2018-09-20T01:51:58.392Z,11.77
2018-09-20T01:54:26.497Z,11.93
2018-09-20T01:56:54.582Z,11.90
2018-09-20T01:59:22.649Z,11.23
2018-09-20T02:01:50.720Z,11.93
2018-09-20T02:04:18.893Z,12.53
2018-09-20T02:06:47.061Z,11.10
2018-09-20T02:09:15.236Z,12.83
2018-09-20T02:11:43.433Z,12.87
2018-09-20T02:14:11.560Z,11.53
2018-09-20T02:16:39.832Z,12.03
2018-09-20T02:19:07.904Z,12.47
2018-09-20T02:21:35.980Z,12.57
2018-09-20T02:24:04.054Z,13.20
2018-09-20T02:26:32.136Z,12.37
2018-09-20T02:29:00.232Z,12.83
2018-09-20T02:31:28.303Z,12.57
2018-09-20T02:33:56.480Z,14.23
2018-09-20T02:36:24.644Z,13.00
2018-09-20T02:38:52.872Z,15.20
2018-09-20T02:41:21.065Z,12.80
2018-09-20T02:43:49.261Z,12.33
2018-09-20T02:46:17.338Z,13.00
2018-09-20T02:48:45.510Z,14.83
2018-09-20T02:51:13.598Z,13.17
2018-09-20T02:53:41.787Z,12.80
2018-09-20T02:56:09.936Z,12.67
2018-09-20T02:58:38.094Z,13.87
2018-09-20T03:01:06.193Z,13.40
2018-09-20T03:03:34.469Z,13.20
2018-09-20T03:06:02.555Z,12.93
2018-09-20T03:08:30.693Z,12.73
2018-09-20T03:10:58.769Z,13.57
2018-09-20T03:13:26.836Z,14.00
2018-09-20T03:15:54.897Z,13.30
2018-09-20T03:18:23.292Z,13.30
2018-09-20T03:20:51.369Z,13.00
2018-09-20T03:23:19.461Z,12.93
2018-09-20T03:25:47.659Z,13.07
2018-09-20T03:28:15.720Z,12.73
2018-09-20T03:30:43.856Z,13.20
2018-09-20T03:33:12.103Z,13.23
2018-09-20T03:35:40.401Z,13.17
2018-09-20T03:38:08.516Z,12.63
2018-09-20T03:40:36.712Z,12.43
2018-09-20T03:43:04.852Z,12.77
2018-09-20T03:45:32.950Z,13.10
2018-09-20T03:48:01.021Z,11.03
2018-09-20T03:50:29.217Z,13.30
2018-09-20T03:52:57.333Z,15.27
2018-09-20T03:55:25.417Z,12.53
2018-09-20T03:57:53.522Z,14.87
2018-09-20T04:00:21.613Z,13.20
2018-09-20T04:02:49.722Z,13.57
2018-09-20T04:05:17.809Z,12.80
2018-09-20T04:07:45.922Z,11.63
2018-09-20T04:10:14.326Z,11.73
2018-09-20T04:12:42.486Z,12.93
2018-09-20T04:15:10.951Z,14.83
2018-09-20T04:17:39.130Z,13.17
2018-09-20T04:20:08.198Z,13.20
2018-09-20T04:22:36.557Z,13.47
2018-09-20T04:25:05.277Z,11.63
2018-09-20T04:27:33.583Z,12.30
2018-09-20T04:30:01.659Z,13.13
2018-09-20T04:32:30.020Z,13.53
2018-09-20T04:34:58.103Z,13.43
2018-09-20T04:37:26.257Z,13.87
2018-09-20T04:39:54.330Z,13.67
2018-09-20T04:42:22.530Z,13.50
2018-09-20T04:44:50.610Z,14.30
2018-09-20T04:47:18.789Z,13.20
2018-09-20T04:49:46.904Z,14.77
2018-09-20T04:52:15.233Z,13.57
2018-09-20T04:54:43.313Z,12.23
2018-09-20T04:57:11.474Z,14.13
2018-09-20T04:59:39.661Z,12.83
2018-09-20T05:05:19.929Z,14.63
2018-09-20T05:07:48.093Z,13.33
2018-09-20T05:10:16.174Z,13.57
2018-09-20T05:12:44.399Z,13.13
2018-09-20T05:15:12.601Z,14.37
2018-09-20T05:17:41.084Z,15.37
2018-09-20T05:20:09.294Z,16.10
2018-09-20T05:22:37.637Z,14.57
2018-09-20T05:25:05.742Z,14.83
2018-09-20T05:27:33.826Z,14.17
2018-09-20T05:30:01.996Z,15.33
2018-09-20T05:32:30.141Z,13.90
2018-09-20T05:34:58.693Z,12.70
2018-09-20T05:37:26.840Z,14.30
2018-09-20T05:39:55.083Z,13.57
2018-09-20T05:42:23.172Z,17.73
2018-09-20T05:44:51.249Z,14.83
2018-09-20T05:47:19.435Z,12.97
2018-09-20T05:49:47.756Z,14.63
2018-09-20T05:52:15.862Z,13.57
2018-09-20T05:54:43.932Z,13.33
2018-09-20T05:57:12.129Z,11.13
2018-09-20T05:59:40.304Z,13.43
2018-09-20T06:02:08.450Z,13.10
2018-09-20T06:04:36.540Z,14.13
2018-09-20T06:07:04.633Z,15.03
2018-09-20T06:09:32.810Z,12.60
2018-09-20T06:12:01.672Z,14.93
2018-09-20T06:14:29.872Z,12.63
2018-09-20T06:16:58.001Z,12.63
2018-09-20T06:19:26.085Z,14.10
2018-09-20T06:21:54.342Z,14.57
2018-09-20T06:24:22.624Z,12.93
2018-09-20T06:26:50.836Z,13.40
2018-09-20T06:29:20.352Z,16.03
2018-09-20T06:31:49.539Z,14.90
2018-09-20T06:34:18.626Z,14.03
2018-09-20T06:36:47.844Z,17.97
2018-09-20T06:39:16.137Z,15.13
2018-09-20T06:41:44.295Z,15.63
2018-09-20T06:44:12.391Z,13.87
2018-09-20T06:46:40.824Z,13.80
2018-09-20T06:49:08.909Z,13.37
2018-09-20T06:51:37.005Z,17.00
2018-09-20T06:54:05.059Z,14.10
2018-09-20T06:56:33.294Z,15.20
2018-09-20T06:59:01.619Z,13.17
2018-09-20T07:01:29.842Z,13.47
2018-09-20T07:03:57.930Z,15.03
2018-09-20T07:06:26.009Z,17.33
2018-09-20T07:08:54.105Z,17.23
2018-09-20T07:11:22.405Z,15.20
2018-09-20T07:13:50.524Z,15.17
2018-09-20T07:16:18.766Z,14.47
2018-09-20T07:18:46.858Z,17.97
2018-09-20T07:21:15.281Z,18.03
2018-09-20T07:23:43.363Z,15.40
2018-09-20T07:26:11.544Z,14.50
2018-09-20T07:28:39.621Z,16.17
2018-09-20T07:31:07.756Z,17.60
2018-09-20T07:33:35.918Z,15.33
2018-09-20T07:36:04.029Z,14.63
2018-09-20T07:38:32.329Z,13.30
2018-09-20T07:41:00.529Z,13.90
2018-09-20T07:43:28.653Z,13.90
2018-09-20T07:45:56.963Z,13.83
2018-09-20T07:48:25.120Z,11.27
2018-09-20T07:50:53.472Z,12.90
2018-09-20T07:53:21.723Z,12.70
2018-09-20T07:55:50.077Z,14.17
2018-09-20T07:58:18.213Z,14.50
2018-09-20T08:00:46.325Z,12.60
2018-09-20T08:03:14.403Z,14.57
2018-09-20T08:05:42.485Z,13.63
2018-09-20T08:08:10.548Z,14.20
2018-09-20T08:10:38.647Z,14.57
2018-09-20T08:13:06.719Z,16.70
2018-09-20T08:15:34.921Z,16.93
2018-09-20T08:18:03.041Z,15.40
2018-09-20T08:20:31.126Z,17.33
2018-09-20T08:22:59.216Z,18.97
2018-09-20T08:25:27.297Z,13.87
2018-09-20T08:27:55.395Z,18.03
2018-09-20T08:30:23.661Z,16.50
2018-09-20T08:32:51.757Z,14.60
2018-09-20T08:35:19.858Z,13.07
2018-09-20T08:37:48.293Z,11.20
2018-09-20T08:40:16.581Z,12.57
2018-09-20T08:42:44.762Z,20.77
2018-09-20T08:45:12.928Z,13.97
2018-09-20T08:47:41.028Z,12.47
2018-09-20T08:50:09.161Z,12.83
2018-09-20T08:52:37.253Z,11.63
2018-09-20T08:55:05.422Z,10.60
2018-09-20T08:57:39.420Z,10.20
2018-09-20T09:00:07.841Z,14.43
2018-09-20T09:02:36.021Z,9.73
2018-09-20T09:05:04.563Z,10.00
2018-09-20T09:07:32.663Z,11.23
2018-09-20T09:10:00.734Z,11.30
2018-09-20T09:12:28.987Z,10.60
2018-09-20T09:14:57.173Z,10.50
2018-09-20T09:17:25.258Z,10.63
2018-09-20T09:19:53.349Z,9.70
2018-09-20T09:22:21.594Z,11.83
2018-09-20T09:24:49.689Z,11.70
2018-09-20T09:27:18.045Z,14.23
2018-09-20T09:29:46.110Z,10.97
2018-09-20T09:32:14.228Z,10.17
2018-09-20T09:34:42.480Z,10.23
2018-09-20T09:37:10.573Z,11.80
2018-09-20T09:39:38.707Z,9.47
2018-09-20T09:42:06.788Z,9.10
2018-09-20T09:44:35.380Z,8.77
2018-09-20T09:47:03.555Z,8.33
2018-09-20T09:49:31.640Z,9.80
2018-09-20T09:51:59.740Z,9.17
2018-09-20T09:54:27.928Z,8.50
2018-09-20T09:56:56.277Z,8.50
2018-09-20T09:59:24.956Z,8.30
2018-09-20T10:01:53.041Z,8.70
2018-09-20T10:04:21.181Z,8.53
2018-09-20T10:06:49.354Z,8.43
2018-09-20T10:09:17.660Z,8.10
2018-09-20T10:11:46.087Z,7.73
2018-09-20T10:14:14.145Z,9.37
2018-09-20T10:16:42.390Z,8.63
2018-09-20T10:19:10.651Z,8.87
2018-09-20T10:21:38.730Z,8.00
2018-09-20T10:24:06.925Z,7.57
2018-09-20T10:26:35.379Z,8.20
2018-09-20T10:29:03.442Z,10.83
2018-09-20T10:31:31.597Z,6.73
2018-09-20T10:34:00.010Z,6.90
2018-09-20T10:36:28.315Z,6.30
2018-09-20T10:38:56.542Z,6.30
2018-09-20T10:41:24.667Z,7.77
2018-09-20T10:43:52.749Z,7.03
2018-09-20T10:46:20.973Z,6.97
2018-09-20T10:48:49.285Z,8.50
2018-09-20T10:51:17.521Z,6.80
2018-09-20T10:53:45.679Z,7.43
2018-09-20T10:56:13.796Z,6.67
2018-09-20T10:58:41.887Z,7.93
2018-09-20T11:01:10.096Z,7.47
2018-09-20T11:03:38.220Z,12.17
2018-09-20T11:06:06.398Z,6.00
2018-09-20T11:08:34.482Z,6.40
2018-09-20T11:11:02.886Z,7.30
2018-09-20T11:13:31.052Z,6.27
2018-09-20T11:15:59.382Z,8.80
2018-09-20T11:18:27.601Z,7.17
2018-09-20T11:20:55.761Z,6.70
2018-09-20T11:23:23.821Z,7.20
2018-09-20T11:25:52.151Z,6.13
2018-09-20T11:28:20.375Z,6.70
2018-09-20T11:30:48.649Z,6.50
2018-09-20T11:33:16.840Z,6.90
2018-09-20T11:35:44.888Z,6.97
2018-09-20T11:38:12.980Z,9.57
2018-09-20T11:40:41.049Z,6.37
2018-09-20T11:43:09.187Z,6.50
2018-09-20T11:45:37.345Z,6.67
2018-09-20T11:48:05.472Z,8.67
2018-09-20T11:50:33.591Z,11.13
2018-09-20T11:53:01.733Z,7.60
2018-09-20T11:55:30.184Z,6.57
2018-09-20T11:57:58.380Z,6.40
2018-09-20T12:00:26.484Z,9.10
2018-09-20T12:02:54.678Z,6.50
2018-09-20T12:05:23.028Z,6.17
2018-09-20T12:07:51.249Z,6.43
2018-09-20T12:10:19.664Z,6.57
2018-09-20T12:12:48.245Z,6.57
2018-09-20T12:15:16.420Z,7.03
2018-09-20T12:17:44.508Z,8.23
2018-09-20T12:20:12.581Z,6.50
2018-09-20T12:22:40.733Z,8.03
2018-09-20T12:25:08.890Z,10.03
2018-09-20T12:27:37.001Z,7.20
2018-09-20T12:30:05.480Z,9.40
2018-09-20T12:32:33.654Z,6.50
2018-09-20T12:35:01.725Z,7.87
2018-09-20T12:37:37.197Z,7.17
2018-09-20T12:40:06.370Z,8.20
2018-09-20T12:42:34.573Z,6.70
2018-09-20T12:45:02.934Z,8.00
2018-09-20T12:47:32.002Z,7.23
2018-09-20T12:50:00.126Z,7.07
2018-09-20T12:52:28.269Z,7.23
2018-09-20T12:54:56.768Z,6.80
2018-09-20T12:57:25.532Z,6.80
2018-09-20T12:59:53.813Z,7.20
2018-09-20T13:02:21.918Z,6.93
2018-09-20T13:04:50.588Z,8.63
2018-09-20T13:07:18.665Z,6.67
2018-09-20T13:09:46.893Z,6.40
2018-09-20T13:12:14.950Z,6.43
2018-09-20T13:14:43.033Z,6.53
2018-09-20T13:17:11.154Z,6.87
2018-09-20T13:19:39.204Z,6.77
2018-09-20T13:22:07.284Z,5.70
2018-09-20T13:24:35.364Z,6.27
2018-09-20T13:27:03.453Z,6.37
2018-09-20T13:29:31.529Z,6.10
2018-09-20T13:31:59.741Z,5.40
2018-09-20T13:34:27.804Z,6.90
2018-09-20T13:36:55.972Z,5.47
2018-09-20T13:39:24.036Z,5.10
2018-09-20T13:41:52.145Z,8.20
2018-09-20T13:44:20.239Z,6.17
2018-09-20T13:46:48.360Z,5.80
2018-09-20T13:49:16.433Z,5.87
2018-09-20T13:51:44.579Z,5.40
2018-09-20T13:54:12.692Z,6.73
2018-09-20T13:56:40.949Z,5.10
2018-09-20T13:59:09.141Z,5.17
2018-09-20T14:01:37.391Z,7.60
2018-09-20T14:04:05.957Z,4.77
2018-09-20T14:06:34.057Z,5.50
2018-09-20T14:09:02.257Z,5.27
2018-09-20T14:11:30.451Z,8.43
2018-09-20T14:13:58.520Z,5.63
2018-09-20T14:16:26.565Z,5.90
2018-09-20T14:18:54.662Z,6.53
2018-09-20T14:21:22.736Z,5.70
2018-09-20T14:23:50.885Z,6.70
2018-09-20T14:26:19.113Z,5.80
2018-09-20T14:28:47.206Z,5.33
2018-09-20T14:31:15.253Z,5.77
2018-09-20T14:33:43.353Z,5.67
2018-09-20T14:36:11.431Z,6.00
2018-09-20T14:38:39.525Z,5.97
2018-09-20T14:41:07.610Z,5.73
2018-09-20T14:43:35.792Z,5.57
2018-09-20T14:46:03.958Z,5.90
2018-09-20T14:48:32.017Z,5.90
2018-09-20T14:51:00.596Z,5.10
2018-09-20T14:53:28.963Z,6.10
2018-09-20T14:55:57.356Z,5.97
2018-09-20T14:58:25.534Z,5.80
2018-09-20T15:00:53.792Z,6.43
2018-09-20T15:03:21.888Z,6.40
2018-09-20T15:05:49.969Z,6.10
2018-09-20T15:08:18.179Z,5.93
2018-09-20T15:10:46.384Z,6.13
2018-09-20T15:13:14.684Z,6.27
2018-09-20T15:15:42.748Z,6.70
2018-09-20T15:18:10.921Z,5.23
2018-09-20T15:20:38.974Z,6.17
2018-09-20T15:23:07.065Z,6.17
2018-09-20T15:25:35.118Z,6.00
2018-09-20T15:28:03.575Z,5.63
2018-09-20T15:30:31.797Z,6.83
2018-09-20T15:32:59.884Z,6.33
2018-09-20T15:35:27.982Z,6.20
2018-09-20T15:37:56.066Z,6.40
2018-09-20T15:40:24.153Z,5.50
2018-09-20T15:42:52.343Z,8.33
2018-09-20T15:45:20.530Z,6.37
2018-09-20T15:47:48.650Z,6.83
2018-09-20T15:50:16.903Z,7.40
2018-09-20T15:52:45.172Z,7.20
2018-09-20T15:55:13.359Z,6.20
2018-09-20T15:57:41.657Z,6.80
2018-09-20T16:00:10.137Z,6.37
2018-09-20T16:02:38.311Z,9.43
2018-09-20T16:05:06.773Z,6.20
2018-09-20T16:07:35.030Z,7.80
2018-09-20T16:10:03.469Z,6.50
2018-09-20T16:12:31.556Z,6.67
2018-09-20T16:14:59.706Z,6.07
2018-09-20T16:17:28.052Z,7.03
2018-09-20T16:19:56.295Z,7.07
2018-09-20T16:22:24.378Z,10.13
2018-09-20T16:24:52.551Z,7.20
2018-09-20T16:27:20.717Z,6.50
2018-09-20T16:29:52.804Z,7.60
2018-09-20T16:32:33.036Z,6.20
2018-09-20T16:35:05.345Z,6.80
2018-09-20T16:37:40.912Z,7.43
2018-09-20T16:40:10.364Z,7.90
2018-09-20T16:42:39.589Z,7.53
2018-09-20T16:45:07.674Z,6.53
2018-09-20T16:47:35.749Z,8.03
2018-09-20T16:50:03.930Z,7.40
2018-09-20T16:52:32.041Z,8.50
2018-09-20T16:55:00.176Z,6.77
2018-09-20T16:57:28.258Z,7.63
2018-09-20T16:59:56.472Z,7.23
2018-09-20T17:02:24.586Z,7.07
2018-09-20T17:04:52.682Z,7.60
2018-09-20T17:07:20.797Z,10.60
2018-09-20T17:09:49.032Z,8.70
2018-09-20T17:12:17.703Z,7.40
2018-09-20T17:14:45.936Z,7.20
2018-09-20T17:17:14.286Z,9.40
2018-09-20T17:19:42.374Z,10.60
2018-09-20T17:22:10.526Z,6.93
2018-09-20T17:24:38.617Z,8.80
2018-09-20T17:27:07.054Z,7.40
2018-09-20T17:29:35.168Z,6.63
2018-09-20T17:32:03.260Z,10.00
2018-09-20T17:34:31.583Z,11.83
2018-09-20T17:37:00.589Z,7.00
2018-09-20T17:39:29.201Z,9.67
2018-09-20T17:41:57.966Z,6.90
2018-09-20T17:44:26.073Z,6.77
2018-09-20T17:46:54.170Z,10.70
2018-09-20T17:49:22.270Z,8.70
2018-09-20T17:51:50.661Z,8.60
2018-09-20T17:54:19.073Z,7.10
2018-09-20T17:56:47.422Z,7.00
2018-09-20T17:59:15.518Z,7.23
2018-09-20T18:01:43.650Z,7.57
2018-09-20T18:04:11.793Z,7.30
2018-09-20T18:06:39.912Z,6.47
2018-09-20T18:09:09.238Z,6.63
2018-09-20T18:11:37.388Z,6.23
2018-09-20T18:14:05.539Z,6.33
2018-09-20T18:16:33.823Z,11.37
2018-09-20T18:19:01.962Z,8.17
2018-09-20T18:21:30.104Z,7.37
2018-09-20T18:23:58.290Z,9.20
2018-09-20T18:26:26.597Z,9.43
2018-09-20T18:28:54.932Z,8.10
2018-09-20T18:31:23.016Z,7.67
2018-09-20T18:33:51.126Z,7.47
2018-09-20T18:36:19.261Z,7.67
2018-09-20T18:38:48.035Z,8.03
2018-09-20T18:41:16.123Z,8.47
2018-09-20T18:43:44.334Z,12.27
2018-09-20T18:46:12.455Z,9.50
2018-09-20T18:48:40.744Z,7.80
2018-09-20T18:51:08.965Z,10.93
2018-09-20T18:53:37.097Z,7.90
2018-09-20T18:56:05.490Z,8.60
2018-09-20T18:58:33.853Z,9.27
2018-09-20T19:01:01.998Z,8.80
2018-09-20T19:03:30.423Z,7.23
2018-09-20T19:05:58.568Z,7.33
2018-09-20T19:08:26.896Z,7.53
2018-09-20T19:10:55.055Z,9.20
2018-09-20T19:13:23.262Z,8.00
2018-09-20T19:15:51.417Z,8.57
2018-09-20T19:18:19.539Z,8.27
2018-09-20T19:20:47.841Z,9.00
2018-09-20T19:23:16.192Z,10.33
2018-09-20T19:25:44.769Z,8.60
2018-09-20T19:28:12.868Z,8.80
2018-09-20T19:30:40.963Z,8.30
2018-09-20T19:33:09.214Z,8.70
2018-09-20T19:35:37.413Z,8.80
2018-09-20T19:38:06.072Z,9.00
2018-09-20T19:40:34.176Z,9.63
2018-09-20T19:43:02.273Z,9.27
2018-09-20T19:45:30.515Z,9.83
2018-09-20T19:47:58.747Z,9.10
2018-09-20T19:50:26.877Z,9.63
2018-09-20T19:52:55.128Z,9.50
2018-09-20T19:55:23.275Z,9.23
2018-09-20T19:57:51.409Z,9.40
2018-09-20T20:00:19.641Z,8.63
2018-09-20T20:02:48.050Z,9.70
2018-09-20T20:05:16.176Z,9.80
2018-09-20T20:07:44.410Z,10.73
2018-09-20T20:10:12.596Z,9.27
2018-09-20T20:12:40.948Z,10.40
2018-09-20T20:15:09.125Z,9.70
2018-09-20T20:17:37.249Z,10.13
2018-09-20T20:20:05.573Z,9.80
2018-09-20T20:22:34.076Z,9.47
2018-09-20T20:25:02.316Z,10.50
2018-09-20T20:27:30.404Z,13.50
2018-09-20T20:29:58.697Z,9.80
2018-09-20T20:32:26.841Z,9.63
2018-09-20T20:34:55.198Z,10.40
2018-09-20T20:37:23.286Z,10.20
2018-09-20T20:39:51.455Z,9.80
2018-09-20T20:42:20.086Z,9.90
2018-09-20T20:44:48.291Z,10.77
2018-09-20T20:47:16.553Z,9.53
2018-09-20T20:49:44.636Z,9.27
2018-09-20T20:52:12.883Z,10.00
2018-09-20T20:54:41.073Z,11.17
2018-09-20T20:57:09.363Z,10.80
2018-09-20T20:59:37.451Z,12.13
2018-09-20T21:02:05.611Z,10.37
2018-09-20T21:04:33.800Z,10.40
2018-09-20T21:07:01.982Z,10.27
2018-09-20T21:09:30.114Z,9.47
2018-09-20T21:11:58.401Z,11.07
2018-09-20T21:14:26.702Z,14.07
2018-09-20T21:16:55.026Z,11.07
2018-09-20T21:19:23.382Z,12.10
2018-09-20T21:21:51.485Z,13.87
2018-09-20T21:24:19.697Z,12.63
2018-09-20T21:26:48.260Z,10.47
2018-09-20T21:29:16.440Z,14.70
2018-09-20T21:31:44.683Z,10.47
2018-09-20T21:34:12.806Z,9.43
2018-09-20T21:36:41.414Z,10.20
2018-09-20T21:39:10.678Z,10.43
2018-09-20T21:41:39.256Z,13.10
2018-09-20T21:44:07.359Z,9.20
2018-09-20T21:46:35.452Z,13.23
2018-09-20T21:49:03.572Z,10.30
2018-09-20T21:51:31.701Z,11.77
2018-09-20T21:53:59.867Z,9.77
2018-09-20T21:56:28.009Z,9.10
2018-09-20T21:58:56.278Z,10.23
2018-09-20T22:01:24.405Z,9.67
2018-09-20T22:03:52.537Z,9.97
2018-09-20T22:06:20.713Z,10.87
2018-09-20T22:08:48.918Z,10.03
2018-09-20T22:11:16.976Z,13.63
2018-09-20T22:13:45.172Z,10.83
2018-09-20T22:16:13.263Z,9.50
2018-09-20T22:18:41.362Z,10.03
2018-09-20T22:21:09.440Z,9.87
2018-09-20T22:23:37.539Z,10.60
2018-09-20T22:26:05.837Z,10.50
2018-09-20T22:28:34.033Z,9.97
2018-09-20T22:31:02.115Z,8.90
2018-09-20T22:33:30.601Z,11.50
2018-09-20T22:35:58.956Z,11.73
2018-09-20T22:38:27.008Z,9.93
2018-09-20T22:40:55.253Z,9.87
2018-09-20T22:43:23.354Z,11.00
2018-09-20T22:45:51.549Z,9.37
2018-09-20T22:48:19.677Z,10.00
2018-09-20T22:50:47.790Z,10.77
2018-09-20T22:53:15.898Z,9.87
2018-09-20T22:55:44.041Z,10.80
2018-09-20T22:58:12.441Z,10.53
2018-09-20T23:00:40.582Z,15.43
2018-09-20T23:03:08.762Z,11.23
2018-09-20T23:05:36.844Z,11.27
2018-09-20T23:08:04.923Z,11.20
2018-09-20T23:10:33.008Z,11.23
2018-09-20T23:13:01.115Z,11.97
2018-09-20T23:15:29.249Z,15.47
2018-09-20T23:17:57.365Z,11.30
2018-09-20T23:20:25.497Z,10.67
2018-09-20T23:22:54.034Z,10.00
2018-09-20T23:25:22.132Z,10.77
2018-09-20T23:27:50.280Z,11.40
2018-09-20T23:30:18.356Z,10.60
2018-09-20T23:32:46.434Z,11.30
2018-09-20T23:35:14.513Z,11.50
2018-09-20T23:37:42.821Z,10.53
2018-09-20T23:40:10.908Z,12.37
2018-09-20T23:42:39.026Z,13.50
2018-09-20T23:45:07.793Z,12.70
2018-09-20T23:47:35.868Z,10.87
2018-09-20T23:50:04.278Z,10.90
2018-09-20T23:52:32.367Z,11.30
2018-09-20T23:55:00.585Z,13.10
2018-09-20T23:57:28.708Z,11.10
2018-09-20T23:59:56.816Z,10.93
